Soleil Weather Down

Nearby METAR Reports

 

KCNI - Canton/Cherokee, Georgia, USA
Distance from station: ENE 6mi, 10km
Updated: Thu, 25-Apr-2019 5:35pm EDT
Mostly cloudy
Mostly cloudy
 Wind from S
Wind: S 6 mph , 9 km/h
Temperature: 73°F , 23°C
Dew Point: 55°F , 13°C
Humidity: 53%
Barometer: 29.89 inHg , 1012.2 hPa
Clouds: Mostly cloudy
Visibility: 10 miles , 16 km
Cloud details: Partly cloudy 4300 ft
Partly cloudy 4900 ft
Mostly cloudy 7000 ft
2019/04/25 21:35 KCNI 252135Z AUTO 19005KT 10SM SCT043 SCT049 BKN070 23/13 A2989 RMK AO2
KRYY - Marietta Mccolum, Georgia, USA
Distance from station: SSW 18mi, 29km
Updated: Thu, 25-Apr-2019 4:48pm EDT
Clear
Clear
 Wind from SSW
Wind: SSW 9 mph , 15 km/h, Gust: 17 mph , 28 km/h
Temperature: 73°F , 23°C
Dew Point: 57°F , 14°C
Humidity: 57%
Barometer: 29.89 inHg , 1012.2 hPa
Clouds: Clear
Visibility: 10 miles , 16 km
2019/04/25 20:48 KRYY 252048Z 21008G15KT 10SM CLR 23/14 A2989 RMK AO2 SLP844 T02280144 58008
KVPC - Cartersville, Georgia, USA
Distance from station: WSW 22mi, 35km
Updated: Thu, 25-Apr-2019 4:53pm EDT
Few Clouds
Few Clouds
 Wind from S
Wind: S 7 mph , 11 km/h
Temperature: 73°F , 23°C
Dew Point: 59°F , 15°C
Humidity: 61%
Barometer: 29.87 inHg , 1011.5 hPa
Clouds: Few Clouds
Visibility: 10 miles , 16 km
Cloud details: Few Clouds 8500 ft
2019/04/25 20:53 KVPC 252053Z AUTO 17006KT 10SM FEW085 23/15 A2987 RMK AO2 SLP105 T02280150 58010
 
KMGE - Dobbins Afb/Mari, Georgia, USA
Distance from station: S 24mi, 39km
Updated: Thu, 25-Apr-2019 4:56pm EDT
Overcast
Overcast
 Wind from SSW
Wind: SSW 17 mph , 28 km/h, Gust: 22 mph , 35 km/h
Temperature: 73°F , 23°C
Dew Point: 57°F , 14°C
Humidity: 57%
Barometer: 29.88 inHg , 1011.9 hPa
Clouds: Overcast
Visibility: 10 miles , 16 km
Cloud details: Partly cloudy 4000 ft
Mostly cloudy 15000 ft
Overcast 25000 ft
2019/04/25 20:56 KMGE 252056Z 21015G19KT 10SM SCT040 BKN150 OVC250 23/14 A2988 RMK AO2A SLP113 T02300135 58007 $
KPDK - Peachtree/Dekalb, Georgia, USA
Distance from station: SSE 29mi, 47km
Updated: Thu, 25-Apr-2019 4:53pm EDT
Mostly cloudy
Mostly cloudy
 Wind from SSW
Wind: SSW 10 mph , 17 km/h, Gust: 23 mph , 37 km/h
Temperature: 73°F , 23°C
Dew Point: 57°F , 14°C
Humidity: 57%
Barometer: 29.89 inHg , 1012.2 hPa
Clouds: Mostly cloudy
Visibility: 10 miles , 16 km
Cloud details: Partly cloudy 4400 ft
Mostly cloudy 6000 ft
2019/04/25 20:53 KPDK 252053Z 21009G20KT 10SM SCT044 BKN060 23/14 A2989 RMK AO2 SLP111 T02280144 58005
KFTY - Atlanta/Fulton, Georgia, USA
Distance from station: S 34mi, 54km
Updated: Thu, 25-Apr-2019 4:53pm EDT
Partly cloudy
Partly cloudy
 Wind from SSW
Wind: SSW 12 mph , 19 km/h
Temperature: 75°F , 24°C
Dew Point: 59°F , 15°C
Humidity: 57%
Barometer: 29.88 inHg , 1011.9 hPa
Clouds: Partly cloudy
Visibility: 10 miles , 16 km
Cloud details: Few Clouds 5000 ft
Few Clouds 6500 ft
Partly cloudy 8000 ft
2019/04/25 20:53 KFTY 252053Z 20010KT 10SM FEW050 FEW065 SCT080 24/15 A2988 RMK AO2 SLP111 T02390150 58006
 
KPUJ - Atlanta/Paulding, Georgia, USA
Distance from station: SW 34mi, 55km
Updated: Thu, 25-Apr-2019 5:35pm EDT
Overcast
Overcast
 Wind from S
Wind: S 3 mph , 6 km/h
Temperature: 70°F , 21°C
Dew Point: 57°F , 14°C
Humidity: 64%
Barometer: 29.88 inHg , 1011.9 hPa
Clouds: Overcast
Visibility: 10 miles , 16 km
Cloud details: Partly cloudy 3600 ft
Partly cloudy 4600 ft
Overcast 8000 ft
2019/04/25 21:35 KPUJ 252135Z AUTO 18003KT 10SM SCT036 SCT046 OVC080 21/14 A2988 RMK AO2
KDNN - Dalton, Georgia, USA
Distance from station: NW 37mi, 59km
Updated: Thu, 25-Apr-2019 5:35pm EDT
Partly cloudy
Partly cloudy
 Wind from SSE
Wind: SSE 6 mph , 9 km/h
Temperature: 75°F , 24°C
Dew Point: 57°F , 14°C
Humidity: 54%
Barometer: 29.84 inHg , 1010.5 hPa
Clouds: Partly cloudy
Visibility: 10 miles , 16 km
Cloud details: Partly cloudy 8500 ft
2019/04/25 21:35 KDNN 252135Z AUTO 16005KT 10SM SCT085 24/14 A2984 RMK AO2
KLZU - Lawrenceville, Georgia, USA
Distance from station: ESE 37mi, 59km
Updated: Thu, 25-Apr-2019 4:56pm EDT
Clear
Clear
 Wind from SW
Wind: SW 17 mph , 28 km/h, Gust: 25 mph , 41 km/h
Temperature: 73°F , 23°C
Dew Point: 57°F , 14°C
Humidity: 57%
Barometer: 29.90 inHg , 1012.5 hPa
Clouds: Clear
Visibility: 10 miles , 16 km
2019/04/25 20:56 KLZU 252056Z 23015G22KT 10SM CLR 23/14 A2990 RMK AO2 SLP126 T02330144 58004
 
KRMG - Rome, Georgia, USA
Distance from station: W 38mi, 61km
Updated: Thu, 25-Apr-2019 4:53pm EDT
Partly cloudy
Partly cloudy
 Wind from varies
Wind: varies 7 mph , 11 km/h
Temperature: 77°F , 25°C
Dew Point: 59°F , 15°C
Humidity: 54%
Barometer: 29.83 inHg , 1010.2 hPa
Clouds: Partly cloudy
Visibility: 10 miles , 16 km
Cloud details: Few Clouds 4600 ft
Partly cloudy 8500 ft
2019/04/25 20:53 KRMG 252053Z AUTO VRB06KT 10SM FEW046 SCT085 25/15 A2983 RMK AO2 SLP091 T02500150 58018
KGVL - Gainesville, Georgia, USA
Distance from station: E 39mi, 62km
Updated: Thu, 25-Apr-2019 4:53pm EDT
Clear
Clear
 Wind from SSW
Wind: SSW 8 mph , 13 km/h
Temperature: 73°F , 23°C
Dew Point: 59°F , 15°C
Humidity: 61%
Barometer: 29.90 inHg , 1012.5 hPa
Clouds: Clear
Visibility: 10 miles , 16 km
2019/04/25 20:53 KGVL 252053Z AUTO 21007KT 10SM CLR 23/15 A2990 RMK AO2 SLP114 T02280150 58008
KATL - Atlanta, Georgia, USA
Distance from station: S 44mi, 71km
Updated: Thu, 25-Apr-2019 4:52pm EDT
Overcast
Overcast
 Wind from SW
Wind: SW 13 mph , 20 km/h
Temperature: 73°F , 23°C
Dew Point: 57°F , 14°C
Humidity: 57%
Barometer: 29.90 inHg , 1012.5 hPa
Clouds: Overcast
Visibility: 10 miles , 16 km
Cloud details: Few Clouds 4000 ft
Mostly cloudy 6000 ft
Mostly cloudy 12000 ft
Overcast 25000 ft
2019/04/25 20:52 KATL 252052Z 22011KT 10SM FEW040 BKN060 BKN120 OVC250 23/14 A2990 RMK AO2 SLP117 T02280139 58006